Time;durP1;ratioP1;P1;durP2;ratioP2;P2;SDS_P1;SDS_P2;PMS_P1;PMS_P2;Temp;Humidity;BMP_temperature;BMP_pressure;BME280_temperature;BME280_humidity;BME280_pressure;Samples;Min_cycle;Max_cycle;Signal;HPM_P1;HPM_P2
2023/12/25 00:00:44;;;;;;;4.47;1.70;;;;;;;11.27;65.42;100200.78;4147574;28;20038;-65
2023/12/25 00:02:48;;;;;;;11.57;3.92;;;;;;;11.24;65.58;100200.75;4146899;28;20033;-65
2023/12/25 00:04:50;;;;;;;20.33;10.60;;;;;;;11.13;65.27;100198.97;4133579;28;20041;-65
2023/12/25 00:06:53;;;;;;;8.75;3.50;;;;;;;11.05;66.08;100190.22;4131310;28;20046;-65
2023/12/25 00:08:55;;;;;;;5.97;2.28;;;;;;;11.05;65.65;100191.94;4131490;28;20138;-66
2023/12/25 00:10:58;;;;;;;9.05;3.35;;;;;;;11.01;66.62;100198.88;4132469;28;20047;-65
2023/12/25 00:13:01;;;;;;;9.40;3.30;;;;;;;11.03;66.05;100181.53;4146390;28;20038;-65
2023/12/25 00:15:05;;;;;;;4.32;1.90;;;;;;;10.99;66.88;100191.06;4147137;28;20062;-65
2023/12/25 00:17:08;;;;;;;7.32;2.60;;;;;;;10.89;66.77;100196.16;4131668;28;20038;-65
2023/12/25 00:19:12;;;;;;;8.70;3.35;;;;;;;10.87;67.51;100188.34;4131213;28;20129;-65
2023/12/25 00:21:15;;;;;;;11.50;4.40;;;;;;;10.91;66.65;100197.06;4131203;28;20042;-65
2023/12/25 00:23:18;;;;;;;10.80;3.13;;;;;;;10.89;67.46;100177.94;4131182;28;20501;-65
2023/12/25 00:25:21;;;;;;;14.20;5.72;;;;;;;10.91;66.77;100197.06;4130980;28;20040;-65
2023/12/25 00:27:24;;;;;;;8.75;3.78;;;;;;;10.87;67.17;100182.28;4142176;28;20088;-65
2023/12/25 00:29:27;;;;;;;9.07;3.90;;;;;;;10.84;67.66;100193.53;4135813;28;20092;-65
2023/12/25 00:31:30;;;;;;;10.50;4.75;;;;;;;10.81;67.49;100201.28;4130159;28;20057;-66
2023/12/25 00:33:33;;;;;;;9.50;3.95;;;;;;;10.77;67.94;100202.97;4129996;28;20057;-65
2023/12/25 00:35:37;;;;;;;4.40;1.45;;;;;;;10.76;67.71;100215.97;4129810;28;20499;-65
2023/12/25 00:37:41;;;;;;;7.15;2.80;;;;;;;10.78;67.07;100201.28;4129974;28;20523;-65
2023/12/25 00:39:43;;;;;;;14.85;6.55;;;;;;;10.80;67.12;100205.59;4129830;28;20125;-65
2023/12/25 00:41:46;;;;;;;5.88;2.17;;;;;;;10.80;67.26;100209.94;4143575;28;20061;-65
2023/12/25 00:43:49;;;;;;;9.15;2.72;;;;;;;10.80;67.79;100203.00;4145034;28;20484;-65
2023/12/25 00:45:52;;;;;;;5.55;2.58;;;;;;;10.76;67.30;100206.47;4132525;28;20432;-65
2023/12/25 00:47:55;;;;;;;4.47;1.67;;;;;;;10.79;68.09;100211.69;4132822;28;20062;-65
2023/12/25 00:49:59;;;;;;;11.80;4.55;;;;;;;10.80;67.69;100207.34;4132643;28;20416;-65
2023/12/25 00:52:04;;;;;;;13.32;4.85;;;;;;;10.76;68.25;100203.84;4132616;28;20042;-65
2023/12/25 00:54:06;;;;;;;7.55;2.78;;;;;;;10.80;67.90;100209.94;4132585;28;20120;-65
2023/12/25 00:56:08;;;;;;;7.10;3.33;;;;;;;10.72;68.16;100209.88;4148239;28;20041;-65
2023/12/25 00:58:12;;;;;;;36.75;14.88;;;;;;;10.63;67.94;100205.47;4141559;28;20042;-65
2023/12/25 01:00:15;;;;;;;14.75;5.00;;;;;;;10.59;68.70;100208.03;4148422;28;20069;-64
2023/12/25 01:02:18;;;;;;;12.18;5.50;;;;;;;10.56;68.69;100219.25;4148480;28;20045;-65
2023/12/25 01:04:20;;;;;;;45.15;18.70;;;;;;;10.53;69.53;100207.94;4147462;28;20042;-64
2023/12/25 01:06:23;;;;;;;10.10;4.25;;;;;;;10.50;69.41;100203.59;4141639;28;20217;-64
2023/12/25 01:08:27;;;;;;;10.25;3.33;;;;;;;10.54;68.91;100210.59;4147769;28;20405;-65
2023/12/25 01:10:30;;;;;;;6.95;2.65;;;;;;;10.54;69.72;100201.88;4149352;28;20052;-64
2023/12/25 01:12:33;;;;;;;8.88;2.67;;;;;;;10.54;69.66;100201.88;4137267;28;20043;-65
2023/12/25 01:14:37;;;;;;;14.40;5.95;;;;;;;10.56;69.59;100197.59;4132093;28;20069;-64
2023/12/25 01:16:41;;;;;;;14.65;5.20;;;;;;;10.60;69.46;100196.75;4146468;28;20037;-65
2023/12/25 01:18:46;;;;;;;5.43;2.22;;;;;;;10.52;69.67;100194.09;4135449;28;20066;-65
2023/12/25 01:20:49;;;;;;;20.38;5.80;;;;;;;10.51;69.14;100192.31;4132013;28;20049;-64
2023/12/25 01:22:51;;;;;;;5.00;1.52;;;;;;;10.54;69.66;100197.59;4133282;28;20092;-64
2023/12/25 01:24:56;;;;;;;8.23;2.47;;;;;;;10.47;69.73;100214.84;4140920;28;20475;-64
2023/12/25 01:26:59;;;;;;;7.78;2.33;;;;;;;10.43;69.51;100204.41;4139959;28;20041;-65
2023/12/25 01:29:02;;;;;;;10.65;3.53;;;;;;;10.41;69.73;100209.56;4149252;28;20053;-64
2023/12/25 01:31:05;;;;;;;4.32;1.60;;;;;;;10.48;69.66;100207.91;4147177;28;20044;-65
2023/12/25 01:33:08;;;;;;;4.82;1.50;;;;;;;10.53;70.06;100200.13;4133482;28;20038;-64
2023/12/25 01:35:11;;;;;;;5.70;1.48;;;;;;;10.53;69.54;100210.53;4131411;28;20050;-65
2023/12/25 01:37:14;;;;;;;5.53;2.15;;;;;;;10.52;69.52;100219.22;4131873;28;20038;-65
2023/12/25 01:39:18;;;;;;;5.22;2.00;;;;;;;10.70;69.40;100211.56;4133723;28;20064;-64
2023/12/25 01:41:22;;;;;;;20.35;8.30;;;;;;;10.63;69.07;100220.16;4139793;28;20038;-64
2023/12/25 01:43:25;;;;;;;9.73;4.82;;;;;;;10.69;69.26;100227.16;4131680;28;20555;-65
2023/12/25 01:45:28;;;;;;;11.18;4.28;;;;;;;10.82;68.79;100218.66;4131360;28;20084;-65
2023/12/25 01:47:31;;;;;;;5.95;2.90;;;;;;;10.74;69.38;100225.50;4131687;28;20046;-66
2023/12/25 01:49:34;;;;;;;13.98;6.22;;;;;;;10.65;69.32;100236.69;4131598;28;20054;-66
2023/12/25 01:51:37;;;;;;;9.90;4.57;;;;;;;10.64;69.80;100237.53;4132740;28;20073;-65
2023/12/25 01:53:40;;;;;;;28.23;13.40;;;;;;;10.59;68.93;100240.06;4135197;28;20072;-65
2023/12/25 01:55:43;;;;;;;12.93;6.22;;;;;;;10.63;69.12;100235.78;4139181;28;20038;-65
2023/12/25 01:57:46;;;;;;;7.03;2.80;;;;;;;10.69;69.14;100233.25;4131413;28;20073;-66
2023/12/25 01:59:49;;;;;;;2.03;0.77;;;;;;;10.57;70.05;100238.31;4131386;28;20038;-66
2023/12/25 02:01:52;;;;;;;4.00;1.50;;;;;;;10.59;69.44;100232.28;4131404;28;20049;-65
2023/12/25 02:03:55;;;;;;;4.60;1.60;;;;;;;10.56;69.38;100240.06;4131297;28;20085;-65
2023/12/25 02:05:58;;;;;;;6.35;3.05;;;;;;;10.54;69.48;100238.28;4131015;28;20050;-65
2023/12/25 02:08:02;;;;;;;6.45;2.42;;;;;;;10.60;69.41;100238.34;4136851;28;20562;-65
2023/12/25 02:10:07;;;;;;;1.88;1.00;;;;;;;10.65;69.63;100237.53;4146746;28;20038;-65
2023/12/25 02:12:11;;;;;;;6.18;2.08;;;;;;;10.77;69.15;100230.72;4147351;28;20072;-65
2023/12/25 02:14:15;;;;;;;5.30;2.20;;;;;;;10.82;69.74;100229.06;4147358;28;20488;-65
2023/12/25 02:16:19;;;;;;;7.60;1.38;;;;;;;10.78;69.21;100222.94;4147030;28;20041;-65
2023/12/25 02:18:22;;;;;;;3.65;2.00;;;;;;;10.93;68.64;100230.00;4147288;28;20100;-65
2023/12/25 02:20:25;;;;;;;2.78;1.10;;;;;;;10.82;68.04;100218.66;4147268;28;20144;-65
2023/12/25 02:22:30;;;;;;;2.17;0.80;;;;;;;10.75;69.01;100222.06;4146438;28;20034;-65
2023/12/25 02:24:36;;;;;;;1.33;0.70;;;;;;;10.64;69.54;100214.13;4140133;28;20101;-65
2023/12/25 02:26:40;;;;;;;1.67;0.70;;;;;;;10.69;69.18;100202.06;4130809;28;20397;-65
2023/12/25 02:28:43;;;;;;;4.13;0.90;;;;;;;10.61;68.72;100193.31;4131011;28;20066;-64
2023/12/25 02:30:46;;;;;;;3.45;1.52;;;;;;;10.69;69.11;100207.25;4130839;28;20035;-64
2023/12/25 02:32:49;;;;;;;2.65;1.55;;;;;;;10.64;69.65;100198.53;4132038;28;20038;-64
2023/12/25 02:34:52;;;;;;;3.63;1.38;;;;;;;10.70;69.39;100201.19;4130438;28;20046;-64
2023/12/25 02:36:55;;;;;;;7.57;2.80;;;;;;;10.65;69.47;100208.06;4131394;28;20066;-64
2023/12/25 02:38:57;;;;;;;7.90;3.67;;;;;;;10.73;69.27;100209.03;4147542;28;20427;-65
2023/12/25 02:40:59;;;;;;;5.38;2.05;;;;;;;10.68;68.98;100200.31;4146947;28;20407;-65
2023/12/25 02:43:04;;;;;;;4.95;2.17;;;;;;;10.81;68.97;100191.75;4132030;28;20502;-64
2023/12/25 02:45:07;;;;;;;10.38;3.90;;;;;;;10.84;69.00;100190.91;4145258;28;20046;-64
2023/12/25 02:47:10;;;;;;;8.32;2.95;;;;;;;10.80;68.66;100195.19;4138578;28;20065;-64
2023/12/25 02:49:13;;;;;;;8.32;2.08;;;;;;;10.77;68.34;100187.38;4148043;28;20100;-64
2023/12/25 02:51:16;;;;;;;3.38;1.10;;;;;;;10.73;68.17;100176.94;4146866;28;20042;-65
2023/12/25 02:53:19;;;;;;;2.33;1.13;;;;;;;10.70;68.65;100182.97;4146026;28;20073;-65
2023/12/25 02:55:22;;;;;;;2.10;0.43;;;;;;;10.73;68.47;100183.03;4139719;28;20138;-65
2023/12/25 02:57:25;;;;;;;2.60;1.27;;;;;;;10.76;67.81;100188.25;4147953;28;20108;-64
2023/12/25 02:59:29;;;;;;;0.60;0.60;;;;;;;10.71;68.17;100179.53;4146638;28;20511;-64
2023/12/25 03:01:32;;;;;;;2.67;1.08;;;;;;;10.78;67.90;100180.47;4146767;28;20045;-65
2023/12/25 03:03:35;;;;;;;0.65;0.57;;;;;;;10.78;67.76;100186.53;4145757;28;20080;-65
2023/12/25 03:05:38;;;;;;;2.58;1.10;;;;;;;10.83;67.71;100183.97;4134117;28;20081;-65
2023/12/25 03:07:41;;;;;;;1.63;0.60;;;;;;;10.79;67.98;100174.38;4134030;28;20042;-65
2023/12/25 03:09:44;;;;;;;0.90;0.52;;;;;;;10.69;67.85;100160.47;4146590;28;20527;-65
2023/12/25 03:11:47;;;;;;;1.70;0.70;;;;;;;10.65;68.38;100163.88;4133736;28;20459;-65
2023/12/25 03:13:51;;;;;;;1.35;0.93;;;;;;;10.67;68.45;100146.56;4146089;28;20033;-65
2023/12/25 03:15:55;;;;;;;0.40;0.40;;;;;;;10.61;68.28;100173.38;4132491;28;20046;-64
2023/12/25 03:17:58;;;;;;;1.27;0.82;;;;;;;10.61;68.06;100169.91;4131521;28;20100;-65
2023/12/25 03:20:04;;;;;;;0.65;0.40;;;;;;;10.70;68.54;100179.53;4130321;28;20046;-64
2023/12/25 03:22:08;;;;;;;2.15;0.52;;;;;;;10.74;67.81;100184.75;4130715;28;20069;-64
2023/12/25 03:24:11;;;;;;;0.45;0.38;;;;;;;10.77;68.51;100161.38;4146423;28;20664;-65
2023/12/25 03:26:14;;;;;;;0.40;0.22;;;;;;;10.70;68.62;100171.72;4130005;28;20080;-64
2023/12/25 03:28:17;;;;;;;0.30;0.30;;;;;;;10.79;68.06;100172.69;4131537;28;20439;-65
2023/12/25 03:30:19;;;;;;;0.35;0.30;;;;;;;10.71;68.48;100168.28;4130211;28;20137;-65
2023/12/25 03:32:24;;;;;;;0.22;0.22;;;;;;;10.70;67.98;100177.78;4132225;28;20042;-65
2023/12/25 03:34:27;;;;;;;0.40;0.40;;;;;;;10.68;68.00;100179.50;4144395;28;20042;-65
2023/12/25 03:36:30;;;;;;;0.40;0.40;;;;;;;10.65;68.74;100179.47;4129962;28;20050;-65
2023/12/25 03:38:33;;;;;;;0.65;0.52;;;;;;;10.68;67.72;100194.25;4140001;28;20111;-65
2023/12/25 03:40:36;;;;;;;0.52;0.40;;;;;;;10.61;68.13;100201.97;4145176;28;20033;-64
2023/12/25 03:42:39;;;;;;;0.30;0.30;;;;;;;10.72;68.69;100196.88;4138128;28;20457;-65
2023/12/25 03:44:42;;;;;;;2.10;0.63;;;;;;;10.73;68.08;100209.03;4130085;28;20041;-65
2023/12/25 03:46:45;;;;;;;1.13;0.57;;;;;;;10.78;68.35;100201.28;4131136;28;20447;-64
2023/12/25 03:48:50;;;;;;;0.40;0.40;;;;;;;10.73;68.41;100209.03;4130074;28;20047;-64
2023/12/25 03:50:54;;;;;;;0.43;0.40;;;;;;;10.70;67.77;100205.50;4126018;28;20049;-64
2023/12/25 03:52:56;;;;;;;0.75;0.50;;;;;;;10.70;67.99;100213.31;4142135;28;20060;-65
2023/12/25 03:54:59;;;;;;;0.32;0.32;;;;;;;10.68;68.51;100202.91;4139551;28;20050;-65
2023/12/25 03:57:03;;;;;;;0.47;0.30;;;;;;;10.76;68.14;100208.16;4144921;28;20472;-65
2023/12/25 03:59:05;;;;;;;0.52;0.40;;;;;;;10.75;68.18;100206.44;4146275;28;20069;-64
2023/12/25 04:01:08;;;;;;;0.88;0.40;;;;;;;10.71;68.12;100212.47;4145513;28;20030;-64
2023/12/25 04:03:11;;;;;;;2.17;0.55;;;;;;;10.67;68.73;100224.53;4138250;28;20049;-65
2023/12/25 04:05:14;;;;;;;0.40;0.30;;;;;;;10.57;68.72;100218.41;4129665;28;20513;-64
2023/12/25 04:07:17;;;;;;;0.68;0.35;;;;;;;10.55;69.23;100221.84;4130064;28;20440;-64
2023/12/25 04:09:20;;;;;;;0.82;0.43;;;;;;;10.61;68.72;100211.50;4117810;28;20137;-64
2023/12/25 04:11:24;;;;;;;0.50;0.43;;;;;;;10.67;69.21;100218.50;4155754;28;20038;-64
2023/12/25 04:13:28;;;;;;;0.30;0.30;;;;;;;10.67;69.16;100221.94;4146315;28;20088;-64
2023/12/25 04:15:31;;;;;;;1.42;1.33;;;;;;;10.61;69.42;100229.69;4145795;28;20053;-64
2023/12/25 04:17:34;;;;;;;0.93;0.52;;;;;;;10.74;68.76;100228.97;4148178;28;20034;-64
2023/12/25 04:19:38;;;;;;;2.00;0.40;;;;;;;10.71;68.67;100231.53;4140989;28;20042;-65
2023/12/25 04:21:42;;;;;;;0.50;0.50;;;;;;;10.69;69.17;100234.97;4149138;28;20058;-65
2023/12/25 04:23:45;;;;;;;0.43;0.43;;;;;;;10.76;68.99;100244.56;4148456;28;20062;-65
2023/12/25 04:25:48;;;;;;;0.93;0.40;;;;;;;10.81;67.99;100233.38;4140585;28;20041;-65
2023/12/25 04:27:51;;;;;;;0.82;0.38;;;;;;;10.85;68.48;100234.28;4149153;28;20038;-65
2023/12/25 04:29:55;;;;;;;0.38;0.30;;;;;;;10.79;68.62;100224.69;4149017;28;20038;-65
2023/12/25 04:31:58;;;;;;;0.47;0.40;;;;;;;10.73;68.56;100214.22;4149082;28;20076;-65
2023/12/25 04:34:00;;;;;;;0.20;0.20;;;;;;;10.72;68.16;100204.69;4148256;28;20092;-65
2023/12/25 04:36:04;;;;;;;0.30;0.30;;;;;;;10.79;68.31;100190.88;4141767;28;20129;-65
2023/12/25 04:38:08;;;;;;;0.68;0.30;;;;;;;10.84;68.28;100193.53;4132708;28;20045;-64
2023/12/25 04:40:12;;;;;;;0.35;0.30;;;;;;;10.76;68.80;100192.56;4147904;28;20377;-64
2023/12/25 04:42:14;;;;;;;0.32;0.32;;;;;;;10.82;68.19;100192.66;4140953;28;20404;-65
2023/12/25 04:44:17;;;;;;;0.30;0.30;;;;;;;10.73;68.07;100177.84;4147776;28;20045;-64
2023/12/25 04:46:20;;;;;;;0.77;0.45;;;;;;;10.68;69.05;100168.25;4140586;28;20038;-64
2023/12/25 04:48:22;;;;;;;0.93;0.40;;;;;;;10.68;69.08;100165.66;4132607;28;20554;-64
2023/12/25 04:50:25;;;;;;;0.38;0.38;;;;;;;10.65;69.04;100174.28;4132558;28;20423;-64
2023/12/25 04:52:27;;;;;;;0.40;0.40;;;;;;;10.69;68.76;100181.25;4132561;28;20081;-65
2023/12/25 04:54:32;;;;;;;0.45;0.30;;;;;;;10.71;68.32;100157.88;4142919;28;20046;-65
2023/12/25 04:56:34;;;;;;;0.55;0.30;;;;;;;10.69;68.75;100160.47;4148422;28;20038;-65
2023/12/25 04:58:37;;;;;;;0.35;0.35;;;;;;;10.68;68.51;100166.50;4148586;28;20049;-65
2023/12/25 05:00:39;;;;;;;0.30;0.28;;;;;;;10.73;68.12;100175.22;4148373;28;20066;-63
2023/12/25 05:02:42;;;;;;;0.38;0.38;;;;;;;10.70;68.07;100166.53;4144487;28;20046;-65
2023/12/25 05:04:45;;;;;;;0.52;0.30;;;;;;;10.85;68.23;100176.19;4132180;28;20046;-65
2023/12/25 05:06:48;;;;;;;0.55;0.40;;;;;;;10.91;67.67;100182.31;4132262;28;20165;-65
2023/12/25 05:08:51;;;;;;;0.80;0.30;;;;;;;10.88;67.59;100184.88;4119626;28;20066;-65
2023/12/25 05:10:56;;;;;;;0.30;0.30;;;;;;;10.78;68.68;100190.88;4134705;28;20073;-65
2023/12/25 05:12:59;;;;;;;0.40;0.40;;;;;;;10.83;68.63;100182.25;4150322;28;20137;-65
2023/12/25 05:15:01;;;;;;;0.20;0.20;;;;;;;10.78;68.49;100185.66;4148039;28;20076;-65
2023/12/25 05:17:05;;;;;;;2.15;0.40;;;;;;;10.85;67.75;100183.97;4134769;28;20041;-65
2023/12/25 05:19:10;;;;;;;2.53;0.40;;;;;;;10.80;67.74;100179.59;4148227;28;20073;-65
2023/12/25 05:21:13;;;;;;;0.28;0.25;;;;;;;10.84;68.61;100203.91;4132066;28;20092;-65
2023/12/25 05:23:16;;;;;;;0.55;0.38;;;;;;;10.80;68.47;100200.41;4133264;28;20042;-65
2023/12/25 05:25:19;;;;;;;0.93;0.30;;;;;;;10.72;67.93;100209.00;4145673;28;20403;-65
2023/12/25 05:27:23;;;;;;;0.30;0.30;;;;;;;10.70;67.99;100208.97;4139851;28;20137;-65
2023/12/25 05:29:27;;;;;;;;;;;;;;;10.73;68.42;100214.22;4133243;28;20042;-65
2023/12/25 05:31:30;;;;;;;0.52;0.30;;;;;;;10.78;67.96;100217.72;4133148;28;19922;-65
2023/12/25 05:33:32;;;;;;;2.22;0.40;;;;;;;10.77;68.68;100220.31;4133071;28;20038;-65
2023/12/25 05:35:35;;;;;;;0.70;0.40;;;;;;;10.86;68.87;100201.34;4145810;28;20439;-65
2023/12/25 05:37:38;;;;;;;0.75;0.40;;;;;;;10.99;68.24;100210.97;4137845;28;20265;-65
2023/12/25 05:39:40;;;;;;;0.30;0.30;;;;;;;10.92;67.87;100206.59;4138984;28;20037;-65
2023/12/25 05:41:43;;;;;;;1.10;0.30;;;;;;;10.97;67.71;100197.09;4140827;28;20484;-65
2023/12/25 05:43:46;;;;;;;1.30;0.35;;;;;;;10.91;68.93;100202.25;4148277;28;20044;-65
2023/12/25 05:45:49;;;;;;;0.50;0.35;;;;;;;10.99;68.66;100198.88;4142888;28;20077;-65
2023/12/25 05:47:52;;;;;;;0.38;0.28;;;;;;;10.97;68.89;100192.75;4143916;28;20061;-65
2023/12/25 05:49:56;;;;;;;0.40;0.40;;;;;;;11.09;67.92;100210.19;4143177;28;20480;-66
2023/12/25 05:51:58;;;;;;;0.53;0.47;;;;;;;11.06;68.04;100202.38;4132788;28;20576;-65
2023/12/25 05:54:01;;;;;;;0.20;0.20;;;;;;;11.02;68.53;100211.00;4132746;28;20125;-65
2023/12/25 05:56:05;;;;;;;1.55;0.63;;;;;;;11.09;67.75;100215.41;4147811;28;20100;-65
2023/12/25 05:58:08;;;;;;;1.13;0.52;;;;;;;11.10;68.08;100218.88;4133288;28;20065;-65
2023/12/25 06:00:14;;;;;;;0.30;0.30;;;;;;;11.03;68.73;100219.69;4142997;28;20042;-65
2023/12/25 06:02:18;;;;;;;0.65;0.38;;;;;;;11.05;68.56;100207.56;4139059;28;20070;-65
2023/12/25 06:04:21;;;;;;;0.77;0.40;;;;;;;10.98;69.18;100206.63;4140548;28;20046;-65
2023/12/25 06:06:24;;;;;;;1.15;0.38;;;;;;;10.97;68.62;100208.38;4132298;28;20049;-65
2023/12/25 06:08:27;;;;;;;0.50;0.50;;;;;;;10.96;69.89;100205.75;4132607;28;20053;-64
2023/12/25 06:10:30;;;;;;;0.35;0.35;;;;;;;10.97;69.81;100223.13;4141045;28;20037;-64
2023/12/25 06:12:33;;;;;;;0.43;0.43;;;;;;;11.00;69.57;100228.34;4145820;28;20038;-64
2023/12/25 06:14:35;;;;;;;1.02;0.40;;;;;;;10.90;69.66;100222.16;4140452;28;20044;-64
2023/12/25 06:16:39;;;;;;;0.68;0.47;;;;;;;10.86;70.72;100235.13;4140232;28;20039;-64
2023/12/25 06:18:42;;;;;;;0.60;0.60;;;;;;;10.91;70.30;100246.47;4132405;28;20096;-64
2023/12/25 06:20:47;;;;;;;0.40;0.40;;;;;;;10.97;70.90;100238.72;4132314;28;20042;-64
2023/12/25 06:22:50;;;;;;;3.45;0.80;;;;;;;10.92;71.17;100237.78;4132262;28;20129;-64
2023/12/25 06:24:55;;;;;;;0.40;0.40;;;;;;;10.87;71.51;100237.75;4132143;28;20081;-64
2023/12/25 06:26:58;;;;;;;0.47;0.30;;;;;;;10.83;71.25;100236.88;4143162;28;20046;-64
2023/12/25 06:29:00;;;;;;;1.00;0.50;;;;;;;10.92;71.03;100230.00;4148376;28;20132;-64
2023/12/25 06:31:03;;;;;;;0.40;0.40;;;;;;;10.95;71.46;100228.31;4133295;28;20050;-64
2023/12/25 06:33:08;;;;;;;0.45;0.35;;;;;;;10.87;71.77;100247.28;4132068;28;20117;-64
2023/12/25 06:35:11;;;;;;;0.98;0.60;;;;;;;10.85;71.33;100241.19;4132178;28;20522;-64
2023/12/25 06:37:14;;;;;;;0.82;0.40;;;;;;;10.91;71.27;100233.47;4146670;28;20519;-64
2023/12/25 06:39:17;;;;;;;1.08;0.60;;;;;;;10.88;71.29;100241.22;4147104;28;20049;-64
2023/12/25 06:41:20;;;;;;;0.60;0.60;;;;;;;10.97;69.96;100251.72;4145453;28;20046;-64
2023/12/25 06:43:23;;;;;;;1.92;0.63;;;;;;;10.89;70.50;100258.56;4146749;28;20400;-64
2023/12/25 06:45:26;;;;;;;0.55;0.45;;;;;;;10.83;71.49;100268.06;4131577;28;20046;-64
2023/12/25 06:47:29;;;;;;;1.20;0.40;;;;;;;10.81;71.27;100274.97;4141706;28;20080;-64
2023/12/25 06:49:33;;;;;;;1.63;0.47;;;;;;;10.98;70.71;100256.03;4145469;28;20049;-64
2023/12/25 06:51:35;;;;;;;0.55;0.55;;;;;;;10.98;69.38;100250.84;4131934;28;20080;-64
2023/12/25 06:53:38;;;;;;;0.68;0.52;;;;;;;10.78;70.84;100264.53;4131913;28;20047;-64
2023/12/25 06:55:41;;;;;;;1.00;0.65;;;;;;;10.81;69.95;100266.31;4135629;28;20076;-64
2023/12/25 06:57:44;;;;;;;1.45;0.65;;;;;;;10.85;69.73;100252.47;4143699;28;20101;-64
2023/12/25 06:59:47;;;;;;;0.40;0.40;;;;;;;10.81;70.01;100256.75;4131740;28;20557;-64
2023/12/25 07:01:50;;;;;;;4.95;1.02;;;;;;;10.74;70.00;100252.34;4131642;28;20132;-64
2023/12/25 07:03:53;;;;;;;0.52;0.50;;;;;;;10.81;70.65;100251.56;4131598;28;20101;-64
2023/12/25 07:05:58;;;;;;;0.88;0.60;;;;;;;10.92;69.71;100258.59;4136277;28;20065;-64
2023/12/25 07:08:01;;;;;;;1.08;0.40;;;;;;;10.97;70.29;100267.34;4147791;28;20037;-64
2023/12/25 07:10:04;;;;;;;2.70;0.68;;;;;;;10.93;69.55;100262.94;4132964;28;20046;-65
2023/12/25 07:12:07;;;;;;;1.17;0.40;;;;;;;10.92;69.83;100277.69;4143125;28;20509;-65
2023/12/25 07:14:10;;;;;;;1.42;0.60;;;;;;;10.92;70.11;100277.69;4140016;28;20066;-65
2023/12/25 07:16:20;;;;;;;1.40;0.60;;;;;;;10.97;70.05;100285.53;4131282;28;20122;-65
2023/12/25 07:18:23;;;;;;;0.50;0.50;;;;;;;10.94;70.00;100283.78;4138033;28;20049;-65
2023/12/25 07:20:25;;;;;;;0.65;0.50;;;;;;;10.94;69.88;100293.31;4145966;28;20037;-65
2023/12/25 07:22:31;;;;;;;2.67;0.50;;;;;;;10.94;70.84;100291.56;4145398;28;20050;-64
2023/12/25 07:24:34;;;;;;;1.75;0.60;;;;;;;10.94;70.08;100295.91;4131422;28;20038;-64
2023/12/25 07:26:37;;;;;;;1.42;0.50;;;;;;;10.92;70.28;100284.59;4138938;28;20041;-64
2023/12/25 07:28:39;;;;;;;2.40;0.50;;;;;;;10.95;69.95;100287.22;4144012;28;20054;-65
2023/12/25 07:30:43;;;;;;;0.60;0.40;;;;;;;10.87;70.89;100288.91;4131378;28;20042;-64
2023/12/25 07:32:47;;;;;;;1.85;0.50;;;;;;;10.87;71.21;100287.16;4131455;28;20141;-64
2023/12/25 07:34:51;;;;;;;0.60;0.43;;;;;;;10.91;70.76;100294.16;4130038;28;20034;-64
2023/12/25 07:36:54;;;;;;;1.40;0.43;;;;;;;10.92;70.94;100292.41;4140740;28;20125;-64
2023/12/25 07:38:58;;;;;;;1.05;0.55;;;;;;;10.89;70.58;100297.59;4141130;28;20047;-64
2023/12/25 07:41:01;;;;;;;0.77;0.60;;;;;;;11.00;70.50;100296.81;4131059;28;20053;-64
2023/12/25 07:43:07;;;;;;;2.00;0.55;;;;;;;10.89;70.14;100313.19;4146028;28;20074;-64
2023/12/25 07:45:12;;;;;;;1.80;0.55;;;;;;;10.94;70.42;100301.13;4130415;28;20619;-65
2023/12/25 07:47:15;;;;;;;1.15;0.60;;;;;;;10.89;70.49;100307.97;4135820;28;20042;-63
2023/12/25 07:49:18;;;;;;;2.25;0.65;;;;;;;10.90;70.98;100314.94;4143694;28;20038;-64
2023/12/25 07:51:21;;;;;;;2.67;0.70;;;;;;;10.96;70.34;100308.06;4145725;28;20042;-64
2023/12/25 07:53:24;;;;;;;2.08;0.73;;;;;;;10.87;70.86;100310.56;4142804;28;20575;-63
2023/12/25 07:55:30;;;;;;;2.63;0.70;;;;;;;10.89;70.75;100321.84;4143717;28;20046;-64
2023/12/25 07:57:33;;;;;;;0.95;0.60;;;;;;;10.82;70.75;100322.66;4143085;28;20104;-64
2023/12/25 07:59:36;;;;;;;1.58;0.70;;;;;;;10.80;70.48;100320.03;4145408;28;20034;-64
2023/12/25 08:01:39;;;;;;;3.30;0.60;;;;;;;10.81;70.26;100320.91;4150515;28;20368;-64
2023/12/25 08:03:42;;;;;;;0.68;0.50;;;;;;;10.93;69.86;100330.56;4150438;28;20036;-64
2023/12/25 08:05:46;;;;;;;0.68;0.35;;;;;;;10.83;70.58;100340.00;4150181;28;20060;-64
2023/12/25 08:07:49;;;;;;;1.60;0.50;;;;;;;10.83;70.71;100338.28;4149069;28;20061;-64
2023/12/25 08:09:51;;;;;;;2.60;0.70;;;;;;;10.78;70.31;100337.34;4149855;28;20130;-63
2023/12/25 08:11:55;;;;;;;2.85;0.70;;;;;;;10.87;69.86;100336.56;4148861;28;20060;-64
2023/12/25 08:13:58;;;;;;;1.00;0.57;;;;;;;10.71;70.23;100338.13;4147891;28;20499;-64
2023/12/25 08:16:01;;;;;;;2.00;0.57;;;;;;;10.83;69.91;100327.88;4145806;28;20044;-65
2023/12/25 08:18:05;;;;;;;3.72;0.68;;;;;;;10.87;70.04;100327.91;4145745;28;20042;-65
2023/12/25 08:20:09;;;;;;;1.52;0.75;;;;;;;10.80;69.88;100322.63;4134838;28;20050;-65
2023/12/25 08:22:11;;;;;;;3.90;1.23;;;;;;;10.65;70.24;100327.66;4148253;28;20045;-64
2023/12/25 08:24:14;;;;;;;2.22;0.60;;;;;;;10.59;70.78;100325.88;4137405;28;20183;-63
2023/12/25 08:26:18;;;;;;;1.85;0.50;;;;;;;10.61;70.57;100328.47;4154392;28;20128;-63
2023/12/25 08:28:22;;;;;;;1.42;0.68;;;;;;;10.65;71.31;100331.13;4138183;28;20493;-64
2023/12/25 08:30:24;;;;;;;6.88;1.02;;;;;;;10.77;70.95;100329.53;4149727;28;20033;-62
2023/12/25 08:32:27;;;;;;;2.80;0.65;;;;;;;10.72;71.07;100337.28;4149194;28;20042;-61
2023/12/25 08:34:29;;;;;;;1.20;0.60;;;;;;;10.80;70.29;100346.03;4149796;28;20132;-64
2023/12/25 08:36:32;;;;;;;2.03;0.52;;;;;;;10.87;70.54;100351.31;4148935;28;20073;-65
2023/12/25 08:38:35;;;;;;;1.10;0.60;;;;;;;10.90;70.28;100352.22;4149750;28;20069;-63
2023/12/25 08:40:39;;;;;;;4.93;1.00;;;;;;;10.92;70.37;100360.03;4149880;28;20044;-62
2023/12/25 08:42:42;;;;;;;1.13;0.68;;;;;;;10.92;69.87;100365.22;4149395;28;20448;-63
2023/12/25 08:44:47;;;;;;;1.38;0.70;;;;;;;10.70;70.56;100364.13;4147845;28;20088;-63
2023/12/25 08:46:50;;;;;;;1.48;0.52;;;;;;;10.78;71.03;100365.94;4142595;28;20042;-64
2023/12/25 08:48:52;;;;;;;1.15;0.50;;;;;;;10.88;70.65;100358.25;4144628;28;20468;-61
2023/12/25 08:50:55;;;;;;;1.60;0.40;;;;;;;10.88;70.31;100363.44;4148461;28;20072;-63
2023/12/25 08:52:58;;;;;;;1.85;0.57;;;;;;;10.88;70.66;100359.13;4143245;28;20049;-63
2023/12/25 08:55:02;;;;;;;1.13;0.60;;;;;;;11.00;70.29;100368.81;4145057;28;20120;-61
2023/12/25 08:57:05;;;;;;;2.75;0.43;;;;;;;10.97;70.62;100376.56;4137249;28;20782;-62
2023/12/25 08:59:08;;;;;;;0.75;0.57;;;;;;;10.98;70.63;100365.28;4145260;28;20041;-62
2023/12/25 09:01:12;;;;;;;1.17;0.57;;;;;;;11.12;69.64;100363.72;4147418;28;20041;-62
2023/12/25 09:03:15;;;;;;;2.08;0.63;;;;;;;11.16;69.77;100359.44;4143423;28;20045;-62
2023/12/25 09:05:18;;;;;;;0.98;0.63;;;;;;;11.10;70.11;100365.44;4146051;28;20038;-62
2023/12/25 09:07:20;;;;;;;2.00;0.80;;;;;;;11.13;70.61;100370.66;4147061;28;20406;-63
2023/12/25 09:09:23;;;;;;;1.70;0.47;;;;;;;11.11;69.52;100375.00;4146081;28;20061;-63
2023/12/25 09:11:25;;;;;;;0.52;0.50;;;;;;;11.07;70.52;100370.63;4140599;28;20042;-62
2023/12/25 09:13:28;;;;;;;0.80;0.40;;;;;;;11.13;69.66;100378.47;4146997;28;20065;-62
2023/12/25 09:15:31;;;;;;;1.77;0.43;;;;;;;11.25;69.56;100369.06;4139223;28;20058;-63
2023/12/25 09:17:36;;;;;;;0.57;0.50;;;;;;;11.39;68.90;100372.69;4144177;28;20045;-63
2023/12/25 09:19:40;;;;;;;0.85;0.47;;;;;;;11.20;69.21;100375.94;4142435;28;20049;-65
2023/12/25 09:21:43;;;;;;;0.40;0.32;;;;;;;11.15;69.50;100384.56;4142419;28;20034;-63
2023/12/25 09:23:46;;;;;;;0.50;0.45;;;;;;;11.10;69.02;100383.66;4144858;28;20045;-63
2023/12/25 09:25:49;;;;;;;1.65;0.43;;;;;;;11.25;69.44;100379.47;4143351;28;20554;-62
2023/12/25 09:27:52;;;;;;;1.02;0.52;;;;;;;11.25;69.45;100389.88;4145095;28;20415;-63
2023/12/25 09:29:55;;;;;;;1.30;0.57;;;;;;;11.29;70.11;100381.25;4146783;28;20033;-62
2023/12/25 09:31:58;;;;;;;1.65;0.50;;;;;;;11.31;68.78;100401.22;4146742;28;20381;-62